Time;durP1;ratioP1;P1;durP2;ratioP2;P2;SDS_P1;SDS_P2;PMS_P1;PMS_P2;Temp;Humidity;BMP_temperature;BMP_pressure;BME280_temperature;BME280_humidity;BME280_pressure;Samples;Min_cycle;Max_cycle;Signal;HPM_P1;HPM_P2
2022/07/31 00:00:30;;;;;;;8.28;3.80;;;;;;;18.05;100.00;97673.45;1675369;84;28159;-87
2022/07/31 00:02:58;;;;;;;7.05;4.28;;;;;;;18.04;100.00;97670.97;1676841;84;28105;-88
2022/07/31 00:05:28;;;;;;;5.17;3.80;;;;;;;18.03;100.00;97669.31;1677835;84;28232;-87
2022/07/31 00:07:58;;;;;;;7.67;4.05;;;;;;;18.03;100.00;97663.53;1676316;84;28043;-89
2022/07/31 00:10:25;;;;;;;5.85;4.20;;;;;;;18.03;100.00;97668.82;1671732;84;28077;-90
2022/07/31 00:12:52;;;;;;;7.08;4.62;;;;;;;17.98;100.00;97661.40;1682476;83;28071;-88
2022/07/31 00:15:18;;;;;;;8.70;5.45;;;;;;;17.98;100.00;97663.22;1637263;86;28180;-85
2022/07/31 00:17:47;;;;;;;8.90;5.37;;;;;;;18.00;100.00;97657.77;1588325;87;28100;-89
2022/07/31 00:20:17;;;;;;;8.98;5.08;;;;;;;17.96;100.00;97660.73;1644831;86;28077;-88
2022/07/31 00:22:48;;;;;;;6.28;4.45;;;;;;;17.95;100.00;97660.90;1635808;85;28187;-85
2022/07/31 00:25:17;;;;;;;7.22;3.77;;;;;;;17.95;100.00;97662.22;1608630;85;28049;-88
2022/07/31 00:27:44;;;;;;;7.92;4.08;;;;;;;17.92;100.00;97655.47;1655657;85;28149;-89
2022/07/31 00:30:12;;;;;;;6.72;4.37;;;;;;;17.92;100.00;97654.14;1619736;86;28169;-87
2022/07/31 00:32:39;;;;;;;5.05;4.00;;;;;;;17.89;100.00;97651.83;1656741;85;28123;-90
2022/07/31 00:35:05;;;;;;;5.17;3.92;;;;;;;17.89;100.00;97650.50;1619306;87;28030;-90
2022/07/31 00:37:34;;;;;;;5.95;3.90;;;;;;;17.90;100.00;97644.21;1663451;84;28151;-87
2022/07/31 00:40:01;;;;;;;4.60;3.92;;;;;;;17.92;100.00;97650.67;1619374;87;28179;-87
2022/07/31 00:42:33;;;;;;;5.42;3.60;;;;;;;17.92;100.00;97646.20;1660366;85;28186;-88
2022/07/31 00:45:01;;;;;;;5.47;3.50;;;;;;;17.91;100.00;97643.72;1655078;85;28062;-87
2022/07/31 00:47:27;;;;;;;4.03;3.10;;;;;;;17.89;100.00;97638.59;1618765;86;28121;-86
2022/07/31 00:49:53;;;;;;;6.03;3.45;;;;;;;17.86;100.00;97646.06;1655040;84;28040;-87
2022/07/31 00:52:22;;;;;;;4.58;2.75;;;;;;;17.83;100.00;97640.63;1656885;85;28194;-87
2022/07/31 00:54:50;;;;;;;5.37;2.70;;;;;;;17.82;100.00;97641.62;1656180;85;28116;-89
2022/07/31 00:57:18;;;;;;;5.53;3.77;;;;;;;17.82;100.00;97639.47;1657801;85;28033;-89
2022/07/31 00:59:48;;;;;;;3.92;2.87;;;;;;;17.80;100.00;97645.42;1619357;87;28105;-91
2022/07/31 01:02:17;;;;;;;3.80;3.27;;;;;;;17.77;100.00;97639.98;1657006;85;28059;-87
2022/07/31 01:04:51;;;;;;;3.58;2.80;;;;;;;17.77;100.00;97647.92;1619055;87;28124;-87
2022/07/31 01:07:17;;;;;;;4.33;2.42;;;;;;;17.79;100.00;97649.88;1628937;86;28095;-87
2022/07/31 01:09:46;;;;;;;3.58;2.50;;;;;;;17.79;100.00;97643.27;1622333;86;28078;-86
2022/07/31 01:12:23;;;;;;;4.97;3.10;;;;;;;17.80;100.00;97642.77;1619957;87;28102;-86
2022/07/31 01:15:02;;;;;;;2.98;2.05;;;;;;;17.79;100.00;97641.94;1665148;83;28096;-87
2022/07/31 01:17:31;;;;;;;3.87;1.90;;;;;;;17.78;100.00;97644.26;1659706;85;28133;-87
2022/07/31 01:19:57;;;;;;;3.22;2.45;;;;;;;17.78;100.00;97650.88;1658865;85;28022;-90
2022/07/31 01:22:50;;;;;;;2.05;1.85;;;;;;;17.81;100.00;97653.69;1653907;85;28398;-90
2022/07/31 01:25:36;;;;;;;2.17;1.70;;;;;;;17.78;100.00;97648.23;1661678;85;28083;-90
2022/07/31 01:28:23;;;;;;;2.27;1.90;;;;;;;17.78;100.00;97650.88;1662127;85;28186;-90
2022/07/31 01:30:55;;;;;;;2.70;1.52;;;;;;;17.73;100.00;97644.47;1651264;85;28076;-90
2022/07/31 01:33:24;;;;;;;2.50;1.65;;;;;;;17.71;100.00;97649.93;1601301;87;28101;-90
2022/07/31 01:36:03;;;;;;;6.97;2.22;;;;;;;17.68;100.00;97646.28;1605251;88;28092;-89
2022/07/31 01:38:34;;;;;;;3.12;1.60;;;;;;;17.70;100.00;97646.13;1624756;86;28161;-88
2022/07/31 01:41:03;;;;;;;2.37;1.70;;;;;;;17.71;100.00;97643.81;1627491;86;28077;-90
2022/07/31 01:43:42;;;;;;;1.87;1.50;;;;;;;17.74;100.00;97649.58;1661831;85;28092;-86
2022/07/31 01:46:12;;;;;;;2.90;2.00;;;;;;;17.75;100.00;97653.87;1660376;85;28232;-89
2022/07/31 01:48:40;;;;;;;3.12;1.90;;;;;;;17.75;100.00;97641.97;1656618;85;28135;-86
2022/07/31 01:51:09;;;;;;;2.33;1.47;;;;;;;17.77;100.00;97641.31;1657709;85;28111;-86
2022/07/31 01:53:37;;;;;;;1.85;1.40;;;;;;;17.79;100.00;97641.94;1662383;85;28110;-86
2022/07/31 01:56:06;;;;;;;1.62;1.25;;;;;;;17.80;100.00;97640.13;1652000;84;28101;-87
2022/07/31 01:58:39;;;;;;;1.87;1.30;;;;;;;17.80;100.00;97638.30;1655037;85;28259;-87
2022/07/31 02:01:10;;;;;;;1.47;1.00;;;;;;;17.82;100.00;97631.52;1625504;86;28003;-89
2022/07/31 02:03:41;;;;;;;1.20;1.10;;;;;;;17.85;100.00;97634.64;1661763;85;28077;-86
2022/07/31 02:06:08;;;;;;;1.67;1.02;;;;;;;17.88;100.00;97638.78;1626253;86;28173;-88
2022/07/31 02:08:37;;;;;;;0.70;0.70;;;;;;;17.86;100.00;97625.70;1658120;85;28116;-88
2022/07/31 02:11:10;;;;;;;0.85;0.70;;;;;;;17.86;100.00;97630.17;1653127;85;28175;-89
2022/07/31 02:13:38;;;;;;;0.70;0.70;;;;;;;17.86;100.00;97634.14;1656655;85;28031;-88
2022/07/31 02:16:05;;;;;;;0.65;0.40;;;;;;;17.82;100.00;97634.17;1656976;85;28221;-86
2022/07/31 02:18:36;;;;;;;1.72;0.65;;;;;;;17.80;100.00;97634.83;1657772;84;28094;-89
2022/07/31 02:21:02;;;;;;;0.95;0.47;;;;;;;17.75;100.00;97633.20;1655040;85;28084;-87
2022/07/31 02:23:28;;;;;;;0.70;0.33;;;;;;;17.63;100.00;97630.59;1654094;85;28094;-90
2022/07/31 02:25:55;;;;;;;0.47;0.40;;;;;;;17.59;100.00;97639.34;1657272;85;28186;-89
2022/07/31 02:28:23;;;;;;;0.30;0.30;;;;;;;17.53;100.00;97638.70;1648309;85;28140;-87
2022/07/31 02:30:51;;;;;;;0.95;0.35;;;;;;;17.53;100.00;97635.56;1615991;88;28093;-85
2022/07/31 02:33:23;;;;;;;1.57;0.35;;;;;;;17.50;100.00;97635.91;1616475;87;28134;-85
2022/07/31 02:35:52;;;;;;;0.42;0.23;;;;;;;17.46;100.00;97634.58;1616178;87;28097;-88
2022/07/31 02:38:21;;;;;;;2.58;0.25;;;;;;;17.46;100.00;97633.26;1613142;88;28084;-87
2022/07/31 02:40:49;;;;;;;0.88;0.20;;;;;;;17.44;100.00;97639.23;1614873;86;28155;-87
2022/07/31 02:43:16;;;;;;;1.55;0.20;;;;;;;17.44;100.00;97641.88;1615972;87;28023;-88
2022/07/31 02:45:45;;;;;;;2.85;0.30;;;;;;;17.47;100.00;97642.02;1641276;87;28014;-87
2022/07/31 02:48:11;;;;;;;0.57;0.20;;;;;;;17.49;100.00;97638.72;1614555;86;28127;-88
2022/07/31 02:50:38;;;;;;;0.82;0.40;;;;;;;17.49;100.00;97645.33;1615804;88;28082;-87
2022/07/31 02:53:06;;;;;;;0.45;0.30;;;;;;;17.51;100.00;97645.47;1615939;87;28205;-88
2022/07/31 02:55:42;;;;;;;1.77;0.28;;;;;;;17.49;100.00;97644.84;1615463;88;28116;-88
2022/07/31 02:58:04;;;;;;;3.30;0.30;;;;;;;17.47;100.00;97645.98;1613016;86;28117;-88
2022/07/31 03:00:35;;;;;;;2.22;0.33;;;;;;;17.44;100.00;97649.81;1614846;88;28098;-88
2022/07/31 03:03:02;;;;;;;0.35;0.35;;;;;;;17.46;100.00;97651.77;1615693;88;28090;-88
2022/07/31 03:05:28;;;;;;;1.17;0.40;;;;;;;17.47;100.00;97651.28;1615670;87;28116;-88
2022/07/31 03:08:00;;;;;;;1.95;0.20;;;;;;;17.51;100.00;97657.91;1615919;87;28498;-85
2022/07/31 03:10:33;;;;;;;0.30;0.30;;;;;;;17.46;100.00;97664.17;1615674;88;28037;-86
2022/07/31 03:13:04;;;;;;;1.95;0.30;;;;;;;17.39;100.00;97661.89;1614492;87;28083;-90
2022/07/31 03:15:32;;;;;;;0.42;0.20;;;;;;;17.35;100.00;97658.74;1614936;86;28051;-89
2022/07/31 03:17:58;;;;;;;2.12;0.30;;;;;;;17.27;100.00;97664.06;1615930;87;28141;-86
2022/07/31 03:20:26;;;;;;;0.23;0.20;;;;;;;17.23;100.00;97669.86;1617115;86;28039;-87
2022/07/31 03:22:55;;;;;;;0.72;0.53;;;;;;;17.17;100.00;97666.55;1615685;86;28181;-85
2022/07/31 03:25:22;;;;;;;1.22;0.20;;;;;;;17.09;100.00;97668.20;1640546;87;28684;-87
2022/07/31 03:27:49;;;;;;;0.93;0.40;;;;;;;17.01;100.00;97672.20;1615549;87;28121;-86
2022/07/31 03:30:22;;;;;;;0.20;0.20;;;;;;;16.96;100.00;97671.87;1646668;85;28086;-89
2022/07/31 03:32:50;;;;;;;0.42;0.30;;;;;;;16.96;100.00;97685.09;1654419;85;28068;-90
2022/07/31 03:35:13;;;;;;;0.70;0.23;;;;;;;16.97;100.00;97681.42;1652629;85;28071;-90
2022/07/31 03:37:39;;;;;;;0.33;0.30;;;;;;;16.96;100.00;97682.93;1653652;86;28117;-89
2022/07/31 03:40:13;;;;;;;0.33;0.30;;;;;;;16.96;100.00;97681.12;1653428;85;28012;-89
2022/07/31 03:42:40;;;;;;;0.20;0.20;;;;;;;16.95;100.00;97684.75;1653918;85;28072;-86
2022/07/31 03:45:09;;;;;;;0.28;0.28;;;;;;;16.99;100.00;97688.70;1615199;88;28169;-86
2022/07/31 03:47:36;;;;;;;0.33;0.30;;;;;;;17.01;100.00;97689.38;1611330;88;28147;-86
2022/07/31 03:50:05;;;;;;;2.72;0.50;;;;;;;17.00;100.00;97689.53;1616068;87;28056;-86
2022/07/31 03:52:31;;;;;;;1.80;0.30;;;;;;;16.96;100.00;97694.83;1613083;87;28082;-89
2022/07/31 03:54:58;;;;;;;1.40;0.23;;;;;;;16.92;100.00;97694.31;1601447;88;28128;-86
2022/07/31 03:57:26;;;;;;;0.70;0.30;;;;;;;16.88;100.00;97697.45;1623444;87;28155;-89
2022/07/31 04:00:03;;;;;;;0.35;0.30;;;;;;;16.89;100.00;97704.39;1619101;87;28101;-88
2022/07/31 04:02:30;;;;;;;0.45;0.45;;;;;;;16.86;100.00;97712.14;1592589;89;28120;-86
2022/07/31 04:04:59;;;;;;;0.75;0.55;;;;;;;16.86;100.00;97710.82;1621464;87;28057;-88
2022/07/31 04:07:26;;;;;;;0.75;0.40;;;;;;;16.81;100.00;97710.48;1613360;87;28117;-87
2022/07/31 04:09:53;;;;;;;0.50;0.50;;;;;;;16.69;100.00;97717.11;1598929;88;28120;-87
2022/07/31 04:12:19;;;;;;;0.30;0.30;;;;;;;16.69;100.00;97719.22;1619386;87;28155;-90
2022/07/31 04:14:46;;;;;;;1.77;0.50;;;;;;;16.70;100.00;97720.88;1614302;88;28208;-86
2022/07/31 04:17:14;;;;;;;0.53;0.50;;;;;;;16.70;100.00;97728.81;1621153;87;28077;-88
2022/07/31 04:19:43;;;;;;;0.40;0.30;;;;;;;16.72;100.00;97728.66;1619570;87;28076;-86
2022/07/31 04:22:09;;;;;;;1.52;0.40;;;;;;;16.69;100.00;97727.67;1625928;87;28084;-88
2022/07/31 04:24:35;;;;;;;0.68;0.50;;;;;;;16.70;100.00;97731.45;1638636;86;28082;-88
2022/07/31 04:27:03;;;;;;;0.98;0.40;;;;;;;16.68;100.00;97728.66;1614159;87;28056;-88
2022/07/31 04:29:33;;;;;;;0.72;0.40;;;;;;;16.65;100.00;97735.57;1617480;87;28097;-88
2022/07/31 04:31:57;;;;;;;1.12;0.57;;;;;;;16.64;100.00;97738.70;1619722;87;28067;-90
2022/07/31 04:34:32;;;;;;;0.62;0.50;;;;;;;16.60;100.00;97736.55;1607373;87;28178;-89
2022/07/31 04:36:58;;;;;;;0.40;0.40;;;;;;;16.56;100.00;97739.16;1618010;86;28082;-87
2022/07/31 04:39:24;;;;;;;0.70;0.50;;;;;;;16.55;100.00;97743.61;1610077;87;28108;-86
2022/07/31 04:41:54;;;;;;;1.00;0.50;;;;;;;16.60;100.00;97738.70;1617501;86;28084;-86
2022/07/31 04:44:22;;;;;;;1.55;0.40;;;;;;;16.62;100.00;97746.47;1606340;86;28092;-87
2022/07/31 04:46:49;;;;;;;0.50;0.50;;;;;;;16.68;100.00;97756.40;1605998;88;28179;-88
2022/07/31 04:49:15;;;;;;;0.50;0.50;;;;;;;16.67;100.00;97756.89;1606792;88;28099;-87
2022/07/31 04:51:43;;;;;;;2.08;0.40;;;;;;;16.63;100.00;97756.06;1617701;86;28034;-87
2022/07/31 04:54:12;;;;;;;0.28;0.28;;;;;;;16.61;100.00;97757.53;1621465;87;28152;-88
2022/07/31 04:56:41;;;;;;;0.33;0.30;;;;;;;16.59;100.00;97761.31;1614909;87;28163;-87
2022/07/31 04:59:10;;;;;;;0.60;0.30;;;;;;;16.61;100.00;97764.62;1597170;86;28139;-87
2022/07/31 05:01:47;;;;;;;1.10;0.40;;;;;;;16.64;100.00;97778.33;1626925;87;28089;-87
2022/07/31 05:04:16;;;;;;;0.35;0.30;;;;;;;16.65;100.00;97778.67;1617281;87;28023;-88
2022/07/31 05:06:48;;;;;;;0.57;0.33;;;;;;;16.65;100.00;97775.20;1630634;86;28115;-86
2022/07/31 05:09:16;;;;;;;0.37;0.35;;;;;;;16.62;100.00;97782.97;1618859;87;28065;-86
2022/07/31 05:11:45;;;;;;;0.57;0.30;;;;;;;16.61;100.00;97781.80;1605199;88;28083;-86
2022/07/31 05:14:13;;;;;;;2.30;0.60;;;;;;;16.62;100.00;97782.14;1619282;86;28212;-86
2022/07/31 05:16:43;;;;;;;0.40;0.40;;;;;;;16.62;100.00;97788.75;1629640;86;28072;-86
2022/07/31 05:19:10;;;;;;;0.50;0.50;;;;;;;16.55;100.00;97793.80;1597737;88;28159;-87
2022/07/31 05:21:36;;;;;;;0.72;0.50;;;;;;;16.55;100.00;97799.09;1618461;87;28108;-85
2022/07/31 05:24:03;;;;;;;0.62;0.62;;;;;;;16.56;100.00;97799.92;1619132;86;28190;-86
2022/07/31 05:26:35;;;;;;;0.88;0.53;;;;;;;16.52;100.00;97798.09;1618519;86;28086;-86
2022/07/31 05:29:02;;;;;;;0.60;0.50;;;;;;;16.53;100.00;97800.25;1620272;86;28140;-86
2022/07/31 05:31:29;;;;;;;0.85;0.70;;;;;;;16.48;100.00;97807.80;1627594;86;28167;-86
2022/07/31 05:33:58;;;;;;;0.80;0.80;;;;;;;16.46;100.00;97812.43;1627661;86;28156;-87
2022/07/31 05:36:25;;;;;;;3.33;0.72;;;;;;;16.49;100.00;97819.53;1655840;85;28049;-87
2022/07/31 05:38:52;;;;;;;1.12;1.02;;;;;;;16.50;100.00;97821.19;1626876;86;28143;-89
2022/07/31 05:41:18;;;;;;;1.05;0.65;;;;;;;16.54;100.00;97819.05;1629487;86;28112;-86
2022/07/31 05:43:44;;;;;;;2.52;1.27;;;;;;;16.53;100.00;97822.70;1625214;87;28037;-86
2022/07/31 05:46:12;;;;;;;1.10;0.90;;;;;;;16.49;100.00;97816.89;1613075;86;41764;-86
2022/07/31 13:25:30;;;;;;;8.03;2.87;;;;;;;17.95;100.00;97967.52;1732806;77;28109;-88
2022/07/31 13:28:02;;;;;;;3.70;2.90;;;;;;;17.98;100.00;97968.53;1741055;80;28099;-88
2022/07/31 13:30:29;;;;;;;4.70;3.00;;;;;;;18.02;100.00;97963.73;1755687;80;28159;-86
2022/07/31 13:32:55;;;;;;;5.17;2.60;;;;;;;18.07;100.00;97962.73;1740140;80;28202;-86
2022/07/31 13:35:24;;;;;;;4.20;2.55;;;;;;;18.10;100.00;97965.56;1749986;80;28148;-89
2022/07/31 13:37:49;;;;;;;4.85;2.95;;;;;;;18.11;100.00;97959.28;1758243;79;28224;-86
2022/07/31 13:40:15;;;;;;;5.40;2.62;;;;;;;18.10;100.00;97955.80;1748269;80;28073;-86
2022/07/31 13:42:55;;;;;;;2.87;2.52;;;;;;;18.13;100.00;97956.78;1736868;80;28217;-86
2022/07/31 13:45:21;;;;;;;3.50;2.92;;;;;;;18.17;100.00;97952.80;1742153;79;28140;-89
2022/07/31 13:47:47;;;;;;;2.75;2.47;;;;;;;18.19;100.00;97953.96;1749205;80;42342;-86
2022/07/31 13:50:13;;;;;;;4.75;2.52;;;;;;;18.21;100.00;97953.31;1754278;80;28153;-87
2022/07/31 13:52:39;;;;;;;4.10;3.25;;;;;;;18.18;100.00;97956.27;1761484;79;28255;-87
2022/07/31 13:55:07;;;;;;;4.65;2.98;;;;;;;18.19;100.00;97956.61;1740496;79;28161;-90
2022/07/31 13:57:33;;;;;;;8.85;3.98;;;;;;;18.19;100.00;97957.44;1743841;80;28114;-87
2022/07/31 13:59:59;;;;;;;3.08;2.70;;;;;;;18.21;100.00;97951.98;1753736;79;28525;-86
2022/07/31 14:02:25;;;;;;;6.10;2.37;;;;;;;18.22;100.00;97962.91;1755174;80;28106;-87
2022/07/31 14:04:54;;;;;;;2.85;2.50;;;;;;;18.23;100.00;97956.59;1765633;80;42407;-87
2022/07/31 14:07:21;;;;;;;4.85;2.85;;;;;;;18.23;100.00;97961.89;1758989;80;28076;-88
2022/07/31 14:09:47;;;;;;;5.53;2.77;;;;;;;18.24;100.00;97967.53;1749051;80;28110;-89
2022/07/31 14:12:16;;;;;;;3.22;2.33;;;;;;;18.26;100.00;97959.77;1746150;80;28094;-88
2022/07/31 14:14:50;;;;;;;4.78;2.45;;;;;;;18.31;100.00;97967.20;1737109;80;28160;-89
2022/07/31 14:17:16;;;;;;;2.90;2.37;;;;;;;18.33;100.00;97959.89;1767144;80;28051;-89
2022/07/31 14:19:43;;;;;;;3.05;2.67;;;;;;;18.34;100.00;97968.18;1728244;80;28148;-89
2022/07/31 14:22:09;;;;;;;4.03;2.55;;;;;;;18.38;100.00;97972.17;1745476;78;28101;-88
2022/07/31 14:24:36;;;;;;;5.28;2.65;;;;;;;18.39;100.00;97964.03;1754951;79;28064;-88
2022/07/31 14:27:03;;;;;;;3.40;2.50;;;;;;;18.42;100.00;97969.52;1760080;79;28096;-88
2022/07/31 14:29:29;;;;;;;3.52;2.58;;;;;;;18.47;100.00;97968.51;1756813;80;28063;-88
2022/07/31 14:31:55;;;;;;;4.42;2.40;;;;;;;18.49;100.00;97970.50;1768358;79;28053;-88
2022/07/31 14:34:21;;;;;;;4.42;2.40;;;;;;;18.49;100.00;97965.20;1752193;79;28188;-88
2022/07/31 14:36:47;;;;;;;3.58;2.47;;;;;;;18.47;100.00;97956.58;1751824;79;28174;-89
2022/07/31 14:39:13;;;;;;;2.67;2.35;;;;;;;18.48;100.00;97960.89;1730964;80;28105;-89
2022/07/31 14:41:40;;;;;;;3.25;2.40;;;;;;;18.53;100.00;97963.03;1638991;83;28111;-89
2022/07/31 14:44:06;;;;;;;3.75;2.40;;;;;;;18.54;100.00;97960.72;1741050;78;28163;-85
2022/07/31 14:46:32;;;;;;;3.02;2.55;;;;;;;18.54;100.00;97962.91;1758044;79;28074;-87
2022/07/31 14:49:00;;;;;;;4.17;2.65;;;;;;;18.55;100.00;97965.03;1765212;79;28059;-87
2022/07/31 14:51:26;;;;;;;4.22;2.65;;;;;;;18.59;100.00;97965.05;1720732;81;28138;-86
2022/07/31 14:53:52;;;;;;;4.67;2.50;;;;;;;18.64;100.00;97970.66;1716951;81;28100;-87
2022/07/31 14:56:21;;;;;;;4.17;2.50;;;;;;;18.68;100.00;97968.00;1709755;81;28091;-86
2022/07/31 14:58:50;;;;;;;4.65;2.62;;;;;;;18.70;100.00;97968.17;1709774;82;28155;-87
2022/07/31 15:01:16;;;;;;;4.12;1.90;;;;;;;18.74;100.00;97973.95;1709505;82;28082;-87
2022/07/31 15:03:42;;;;;;;5.35;2.30;;;;;;;18.74;100.00;97966.83;1712566;82;28092;-86
2022/07/31 15:06:08;;;;;;;7.72;2.25;;;;;;;18.72;100.00;97976.77;1705365;81;28041;-87
2022/07/31 15:08:35;;;;;;;3.37;2.20;;;;;;;18.71;100.00;97970.33;1751610;79;42456;-87
2022/07/31 15:11:01;;;;;;;2.30;1.92;;;;;;;18.70;100.00;97976.13;1761705;79;28119;-87
2022/07/31 15:13:27;;;;;;;3.80;1.90;;;;;;;18.69;100.00;97971.81;1713818;82;28146;-87
2022/07/31 15:15:59;;;;;;;3.30;2.10;;;;;;;18.70;100.00;97973.97;1714911;81;28097;-87
2022/07/31 15:18:22;;;;;;;3.22;2.10;;;;;;;18.68;100.00;97970.16;1712391;80;28136;-86
2022/07/31 15:20:53;;;;;;;3.33;2.00;;;;;;;18.65;100.00;97972.33;1686285;82;28080;-87
2022/07/31 15:23:16;;;;;;;2.80;1.82;;;;;;;18.60;100.00;97976.78;1689136;83;28146;-87
2022/07/31 15:25:42;;;;;;;3.20;2.10;;;;;;;18.57;100.00;97971.83;1696737;82;28156;-87
2022/07/31 15:28:08;;;;;;;5.80;2.10;;;;;;;18.58;100.00;97973.98;1714496;82;43074;-87
2022/07/31 15:30:34;;;;;;;3.90;1.98;;;;;;;18.57;100.00;97972.33;1712541;82;42392;-87
2022/07/31 15:33:01;;;;;;;2.02;1.80;;;;;;;18.56;100.00;97971.99;1716336;81;28128;-87
2022/07/31 15:35:27;;;;;;;2.55;2.10;;;;;;;18.52;100.00;97968.83;1706860;82;28141;-87
2022/07/31 15:37:58;;;;;;;2.60;1.80;;;;;;;18.51;100.00;97966.34;1707530;80;28072;-87
2022/07/31 15:40:24;;;;;;;3.17;2.35;;;;;;;18.48;100.00;97957.41;1698205;80;28058;-86
2022/07/31 15:42:51;;;;;;;2.67;1.85;;;;;;;18.47;100.00;97962.38;1708859;81;28078;-87
2022/07/31 15:45:19;;;;;;;1.80;1.62;;;;;;;18.46;100.00;97960.72;1728219;80;28087;-87
2022/07/31 15:47:46;;;;;;;3.20;1.67;;;;;;;18.44;100.00;97958.75;1748640;79;28091;-87
2022/07/31 15:50:15;;;;;;;3.47;1.82;;;;;;;18.40;100.00;97956.42;1764264;78;28077;-87
2022/07/31 15:52:42;;;;;;;5.03;1.62;;;;;;;18.40;100.00;97953.77;1732588;80;28077;-87
2022/07/31 15:55:09;;;;;;;2.95;2.10;;;;;;;18.41;100.00;97953.28;1724322;80;28062;-88
2022/07/31 15:57:35;;;;;;;2.72;1.65;;;;;;;18.40;100.00;97947.15;1731645;80;28520;-88
2022/07/31 16:00:01;;;;;;;3.00;1.55;;;;;;;18.40;100.00;97948.97;1749374;80;28114;-88
2022/07/31 16:02:27;;;;;;;2.72;1.57;;;;;;;18.37;100.00;97947.99;1750920;80;42357;-87
2022/07/31 16:04:53;;;;;;;3.47;1.87;;;;;;;18.37;100.00;97950.64;1757807;80;28062;-87
2022/07/31 16:07:22;;;;;;;1.92;1.72;;;;;;;18.34;100.00;97950.47;1766183;78;28141;-87
2022/07/31 16:09:48;;;;;;;1.77;1.52;;;;;;;18.36;100.00;97951.14;1775006;79;28102;-88
2022/07/31 16:12:14;;;;;;;2.42;1.40;;;;;;;18.36;100.00;97951.63;1762300;79;42241;-88
2022/07/31 16:14:40;;;;;;;3.58;1.40;;;;;;;18.32;100.00;97951.16;1751160;80;28151;-88
2022/07/31 16:17:07;;;;;;;2.85;1.50;;;;;;;18.32;100.00;97955.62;1745141;80;28024;-88
2022/07/31 16:19:39;;;;;;;1.92;1.60;;;;;;;18.35;100.00;97944.67;1767714;78;28071;-88
2022/07/31 16:22:05;;;;;;;3.58;1.60;;;;;;;18.35;100.00;97946.83;1735695;79;28185;-87
2022/07/31 16:24:31;;;;;;;3.12;1.55;;;;;;;18.32;100.00;97951.64;1753545;79;28065;-88
2022/07/31 16:26:57;;;;;;;2.17;1.90;;;;;;;18.30;100.00;97947.00;1745701;80;28148;-87
2022/07/31 16:29:24;;;;;;;2.80;1.60;;;;;;;18.36;100.00;97942.36;1746310;80;28127;-87
2022/07/31 16:31:51;;;;;;;3.02;2.00;;;;;;;18.43;100.00;97943.84;1737307;80;28222;-87
2022/07/31 16:34:18;;;;;;;3.72;2.10;;;;;;;18.44;100.00;97943.66;1729479;81;28028;-87
2022/07/31 16:36:45;;;;;;;2.35;1.50;;;;;;;18.46;100.00;97943.00;1714367;82;28128;-87
2022/07/31 16:39:18;;;;;;;2.85;1.80;;;;;;;18.46;100.00;97948.80;1692140;82;28161;-87
2022/07/31 16:41:40;;;;;;;2.75;1.72;;;;;;;18.44;100.00;97951.60;1721754;81;28156;-87
2022/07/31 16:44:06;;;;;;;2.08;1.72;;;;;;;18.39;100.00;97947.31;1696451;82;28091;-87
2022/07/31 16:46:32;;;;;;;1.60;1.50;;;;;;;18.36;100.00;97945.01;1694914;82;28221;-87
2022/07/31 16:48:58;;;;;;;2.60;1.70;;;;;;;18.32;100.00;97946.34;1725452;80;42438;-87
2022/07/31 16:51:25;;;;;;;2.45;1.52;;;;;;;18.26;100.00;97957.61;1729106;80;28086;-87
2022/07/31 16:53:51;;;;;;;3.08;1.70;;;;;;;18.31;100.00;97952.63;1720987;82;28090;-87
2022/07/31 16:56:17;;;;;;;1.55;1.40;;;;;;;18.34;100.00;97955.77;1709601;81;42612;-87
2022/07/31 16:58:43;;;;;;;3.45;1.60;;;;;;;18.41;100.00;97958.58;1710184;81;28083;-87
2022/07/31 17:01:09;;;;;;;2.83;1.57;;;;;;;18.50;100.00;97954.91;1714157;81;28164;-87
2022/07/31 17:03:35;;;;;;;2.50;1.40;;;;;;;18.59;100.00;97961.07;1726622;81;28105;-87
2022/07/31 17:06:03;;;;;;;2.75;1.47;;;;;;;18.64;100.00;97962.72;1685799;83;28124;-87
2022/07/31 17:08:30;;;;;;;3.77;1.80;;;;;;;18.66;100.00;97957.55;1741632;80;28196;-90
2022/07/31 17:10:56;;;;;;;5.65;2.05;;;;;;;18.71;100.00;97955.75;1711908;81;28084;-89
2022/07/31 17:13:22;;;;;;;2.25;1.70;;;;;;;18.62;100.00;97962.05;1720796;81;28567;-86
2022/07/31 17:15:49;;;;;;;1.70;1.60;;;;;;;18.49;100.00;97961.73;1711503;81;42533;-86
2022/07/31 17:18:15;;;;;;;2.12;1.47;;;;;;;18.40;100.00;97967.52;1720786;81;28082;-87
2022/07/31 17:20:45;;;;;;;2.08;1.50;;;;;;;18.32;100.00;97964.39;1704863;82;28069;-87
2022/07/31 17:23:09;;;;;;;2.98;1.47;;;;;;;18.37;100.00;97962.07;1732903;80;28221;-87
2022/07/31 17:25:36;;;;;;;2.15;1.70;;;;;;;18.39;100.00;97964.53;1734454;80;28266;-87
2022/07/31 17:28:02;;;;;;;4.20;1.82;;;;;;;18.46;100.00;97969.99;1728401;81;28080;-87
2022/07/31 17:30:31;;;;;;;10.58;2.55;;;;;;;18.49;100.00;97966.53;1724015;80;28107;-87
2022/07/31 17:32:57;;;;;;;2.22;1.70;;;;;;;18.39;100.00;97969.33;1703192;80;28242;-87
2022/07/31 17:35:24;;;;;;;1.60;1.40;;;;;;;18.30;100.00;97971.67;1689909;82;28205;-87
2022/07/31 17:37:50;;;;;;;1.70;1.40;;;;;;;18.18;100.00;97969.02;1702964;82;28078;-87
2022/07/31 17:40:22;;;;;;;5.25;1.70;;;;;;;18.09;100.00;97975.81;1698065;82;28051;-87
2022/07/31 17:45:23;;;;;;;2.27;1.60;;;;;;;18.10;100.00;97982.28;1760975;79;28097;-90
2022/07/31 17:47:49;;;;;;;1.85;1.62;;;;;;;18.30;100.00;97976.97;1744042;80;28135;-90
2022/07/31 17:50:19;;;;;;;3.60;1.77;;;;;;;18.49;100.00;97985.08;1750586;79;28103;-90
2022/07/31 17:52:45;;;;;;;2.55;1.70;;;;;;;18.64;100.00;97984.75;1739998;80;27995;-90
2022/07/31 17:55:11;;;;;;;3.17;1.90;;;;;;;18.76;100.00;97983.38;1755109;79;28075;-89
2022/07/31 17:57:40;;;;;;;2.65;1.80;;;;;;;18.86;100.00;97984.53;1766961;79;28130;-89
2022/07/31 18:00:08;;;;;;;5.22;1.72;;;;;;;18.92;100.00;97982.53;1742014;79;28120;-89
2022/07/31 18:02:37;;;;;;;3.50;1.85;;;;;;;18.96;100.00;97987.81;1745038;80;28216;-89
2022/07/31 18:05:04;;;;;;;2.33;1.90;;;;;;;18.97;100.00;97991.30;1749091;80;28126;-89
2022/07/31 18:07:31;;;;;;;5.35;1.87;;;;;;;18.96;100.00;97986.48;1750513;79;28070;-86
2022/07/31 18:09:57;;;;;;;3.55;1.70;;;;;;;19.00;100.00;97990.94;1758966;79;28036;-87
2022/07/31 18:12:24;;;;;;;1.92;1.77;;;;;;;18.97;100.00;97990.80;1765689;79;28042;-88
2022/07/31 18:14:52;;;;;;;4.58;1.98;;;;;;;19.01;100.00;97992.59;1749747;80;28177;-89
2022/07/31 18:17:18;;;;;;;1.60;1.50;;;;;;;19.05;100.00;97987.27;1753448;79;28082;-89
2022/07/31 18:19:46;;;;;;;3.55;1.82;;;;;;;18.97;100.00;97987.31;1747643;79;28105;-87
2022/07/31 18:22:13;;;;;;;5.40;3.35;;;;;;;18.75;100.00;97992.84;1761632;79;28085;-86
2022/07/31 18:24:39;;;;;;;5.85;3.22;;;;;;;18.73;100.00;97991.67;1772983;79;28081;-86
2022/07/31 18:27:06;;;;;;;11.18;4.40;;;;;;;18.78;100.00;97988.52;1740889;79;28167;-86
2022/07/31 18:29:32;;;;;;;7.92;2.95;;;;;;;18.84;100.00;97990.98;1764118;78;28194;-86
2022/07/31 18:31:58;;;;;;;3.47;1.70;;;;;;;18.87;100.00;97990.66;1761597;79;28244;-88
2022/07/31 18:34:24;;;;;;;4.90;1.90;;;;;;;18.85;100.00;97997.95;1733707;79;28093;-85
2022/07/31 18:36:51;;;;;;;6.87;2.05;;;;;;;18.87;100.00;97994.64;1752319;80;43127;-86
2022/07/31 18:39:17;;;;;;;1.87;1.60;;;;;;;18.84;100.00;97993.64;1759701;79;28092;-86
2022/07/31 18:41:47;;;;;;;1.70;1.60;;;;;;;18.83;100.00;97999.93;1754243;79;28179;-86
2022/07/31 18:44:14;;;;;;;2.42;1.92;;;;;;;18.78;100.00;98001.27;1763250;80;28063;-86
2022/07/31 18:46:40;;;;;;;3.58;1.82;;;;;;;18.75;100.00;98004.77;1747629;79;28148;-86
2022/07/31 18:49:07;;;;;;;4.90;2.00;;;;;;;18.73;100.00;97999.63;1768904;79;28156;-86
2022/07/31 18:51:38;;;;;;;3.10;1.90;;;;;;;18.70;100.00;98005.28;1743223;79;28125;-86
2022/07/31 18:54:02;;;;;;;4.53;2.10;;;;;;;18.70;100.00;98000.48;1754890;79;28006;-87
2022/07/31 18:56:29;;;;;;;3.45;2.00;;;;;;;18.68;100.00;98004.61;1744351;80;28175;-87
2022/07/31 18:58:55;;;;;;;4.55;1.87;;;;;;;18.65;100.00;98007.61;1735579;79;28072;-86
2022/07/31 19:01:22;;;;;;;3.47;1.92;;;;;;;18.61;100.00;98000.97;1758301;79;28082;-86
2022/07/31 19:03:49;;;;;;;5.08;1.92;;;;;;;18.57;100.00;98011.59;1755677;79;28155;-86
2022/07/31 19:06:16;;;;;;;6.78;1.90;;;;;;;18.58;100.00;98011.09;1734875;79;28236;-86